createdAt,value
2019-01-24T00:01:36.265Z,15.47
2019-01-24T00:04:05.659Z,13.63
2019-01-24T00:06:34.695Z,14.00
2019-01-24T00:09:05.414Z,11.40
2019-01-24T00:11:34.556Z,12.63
2019-01-24T00:14:04.222Z,12.37
2019-01-24T00:16:33.302Z,11.87
2019-01-24T00:19:02.304Z,10.70
2019-01-24T00:21:33.199Z,11.87
2019-01-24T00:24:02.206Z,13.53
2019-01-24T00:26:32.331Z,12.97
2019-01-24T00:29:03.440Z,14.27
2019-01-24T00:31:32.419Z,14.40
2019-01-24T00:34:01.404Z,15.10
2019-01-24T00:36:31.977Z,14.50
2019-01-24T00:39:01.532Z,11.60
2019-01-24T00:41:30.588Z,13.13
2019-01-24T00:43:59.625Z,12.13
2019-01-24T00:46:29.046Z,16.50
2019-01-24T00:48:58.509Z,15.90
2019-01-24T00:51:27.639Z,14.10
2019-01-24T00:53:58.006Z,14.73
2019-01-24T00:56:27.562Z,14.60
2019-01-24T00:58:56.734Z,14.00
2019-01-24T01:01:26.598Z,14.83
2019-01-24T01:03:55.557Z,14.63
2019-01-24T01:06:24.826Z,13.77
2019-01-24T01:08:55.226Z,13.10
2019-01-24T01:11:24.517Z,13.50
2019-01-24T01:13:54.051Z,12.57
2019-01-24T01:16:23.153Z,12.60
2019-01-24T01:18:52.460Z,12.73
2019-01-24T01:21:23.219Z,16.43
2019-01-24T01:23:52.675Z,17.17
2019-01-24T01:26:22.037Z,15.07
2019-01-24T01:28:51.478Z,13.40
2019-01-24T01:31:20.695Z,16.03
2019-01-24T01:33:50.127Z,11.90
2019-01-24T01:36:19.226Z,14.07
2019-01-24T01:38:48.350Z,14.63
2019-01-24T01:41:17.588Z,15.53
2019-01-24T01:43:46.781Z,14.33
2019-01-24T01:46:15.815Z,15.97
2019-01-24T01:48:45.191Z,14.53
2019-01-24T01:51:14.118Z,12.50
2019-01-24T01:53:44.276Z,16.97
2019-01-24T01:56:13.402Z,17.30
2019-01-24T01:58:42.520Z,15.13
2019-01-24T02:01:11.576Z,17.83
2019-01-24T02:03:40.788Z,14.93
2019-01-24T02:06:09.919Z,15.50
2019-01-24T02:08:39.026Z,13.63
2019-01-24T02:11:08.441Z,17.90
2019-01-24T02:13:37.654Z,16.83
2019-01-24T02:16:06.934Z,19.60
2019-01-24T02:18:35.904Z,17.23
2019-01-24T02:21:04.964Z,17.70
2019-01-24T02:23:34.076Z,21.17
2019-01-24T02:26:03.211Z,18.33
2019-01-24T02:28:32.711Z,16.37
2019-01-24T02:31:01.802Z,16.83
2019-01-24T02:33:30.767Z,16.27
2019-01-24T02:35:59.725Z,16.43
2019-01-24T02:38:28.666Z,15.53
2019-01-24T02:40:57.534Z,17.83
2019-01-24T02:43:26.703Z,15.30
2019-01-24T02:45:55.855Z,18.60
2019-01-24T02:48:24.815Z,18.70
2019-01-24T02:50:53.841Z,20.30
2019-01-24T02:53:23.181Z,15.97
2019-01-24T02:55:52.303Z,15.47
2019-01-24T02:58:21.433Z,21.60
2019-01-24T03:00:50.454Z,22.13
2019-01-24T03:03:19.570Z,20.30
2019-01-24T03:05:48.811Z,19.53
2019-01-24T03:08:17.881Z,19.97
2019-01-24T03:10:46.834Z,19.83
2019-01-24T03:13:15.882Z,19.57
2019-01-24T03:15:44.994Z,19.27
2019-01-24T03:18:15.657Z,16.53
2019-01-24T03:20:45.264Z,21.20
2019-01-24T03:23:14.540Z,23.13
2019-01-24T03:25:46.282Z,18.33
2019-01-24T03:28:15.215Z,22.73
2019-01-24T03:30:44.187Z,21.17
2019-01-24T03:33:13.059Z,20.70
2019-01-24T03:35:42.016Z,21.17
2019-01-24T03:38:10.943Z,17.80
2019-01-24T03:40:39.826Z,21.13
2019-01-24T03:43:08.780Z,22.63
2019-01-24T03:45:37.738Z,25.33
2019-01-24T03:48:07.128Z,21.57
2019-01-24T03:50:36.405Z,20.17
2019-01-24T03:53:05.613Z,16.73
2019-01-24T03:55:34.699Z,21.73
2019-01-24T03:58:03.777Z,22.53
2019-01-24T04:00:32.733Z,19.57
2019-01-24T04:03:01.698Z,19.93
2019-01-24T04:05:30.678Z,17.83
2019-01-24T04:07:59.620Z,18.57
2019-01-24T04:10:28.608Z,19.47
2019-01-24T04:12:57.483Z,17.27
2019-01-24T04:15:26.959Z,17.80
2019-01-24T04:17:56.482Z,20.00
2019-01-24T04:20:25.504Z,15.77
2019-01-24T04:22:54.378Z,19.97
2019-01-24T04:25:23.372Z,20.97
2019-01-24T04:27:52.328Z,19.80
2019-01-24T04:30:23.236Z,15.97
2019-01-24T04:32:52.242Z,21.73
2019-01-24T04:35:21.841Z,15.90
2019-01-24T04:37:50.857Z,21.37
2019-01-24T04:40:20.570Z,16.47
2019-01-24T04:42:49.571Z,20.40
2019-01-24T04:45:18.740Z,10.53
2019-01-24T04:47:47.964Z,16.57
2019-01-24T04:50:17.982Z,17.33
2019-01-24T04:52:47.213Z,17.93
2019-01-24T04:55:18.012Z,16.70
2019-01-24T04:57:47.010Z,15.57
2019-01-24T05:00:21.431Z,19.50
2019-01-24T05:02:50.621Z,17.47
2019-01-24T05:05:27.164Z,14.20
2019-01-24T05:07:50.435Z,15.53
2019-01-24T05:10:19.729Z,16.80
2019-01-24T05:12:48.724Z,16.40
2019-01-24T05:15:17.998Z,15.30
2019-01-24T05:17:47.000Z,14.63
2019-01-24T05:20:16.311Z,13.90
2019-01-24T05:22:45.645Z,19.60
2019-01-24T05:25:15.816Z,16.10
2019-01-24T05:27:45.122Z,15.10
2019-01-24T05:30:20.109Z,14.17
2019-01-24T05:32:49.082Z,15.00
2019-01-24T05:35:18.122Z,16.47
2019-01-24T05:37:47.058Z,15.43
2019-01-24T05:40:16.081Z,16.60
2019-01-24T05:42:45.150Z,15.13
2019-01-24T05:45:14.377Z,12.90
2019-01-24T05:47:43.486Z,13.43
2019-01-24T05:50:12.655Z,12.73
2019-01-24T05:52:41.818Z,13.33
2019-01-24T05:55:11.161Z,14.60
2019-01-24T05:57:40.393Z,16.47
2019-01-24T06:00:12.184Z,9.70
2019-01-24T06:02:41.150Z,12.87
2019-01-24T06:05:11.018Z,16.37
2019-01-24T06:07:41.901Z,12.70
2019-01-24T06:10:13.226Z,15.13
2019-01-24T06:12:42.276Z,13.70
2019-01-24T06:15:13.765Z,9.30
2019-01-24T06:17:42.790Z,10.33
2019-01-24T06:20:11.816Z,9.13
2019-01-24T06:22:40.787Z,10.10
2019-01-24T06:25:11.572Z,10.63
2019-01-24T06:27:40.862Z,8.97
2019-01-24T06:30:13.418Z,10.50
2019-01-24T06:32:42.415Z,9.50
2019-01-24T06:35:11.541Z,10.03
2019-01-24T06:37:40.674Z,11.63
2019-01-24T06:40:10.806Z,9.93
2019-01-24T06:42:39.845Z,7.67
2019-01-24T06:45:11.870Z,11.87
2019-01-24T06:47:40.992Z,8.17
2019-01-24T06:50:12.089Z,11.63
2019-01-24T06:52:41.159Z,6.80
2019-01-24T06:55:12.754Z,8.40
2019-01-24T06:57:41.802Z,10.10
2019-01-24T07:00:13.704Z,10.43
2019-01-24T07:02:42.794Z,7.50
2019-01-24T07:05:11.902Z,6.17
2019-01-24T07:07:41.010Z,7.37
2019-01-24T07:10:12.879Z,6.63
2019-01-24T07:12:41.836Z,9.10
2019-01-24T07:15:14.325Z,6.07
2019-01-24T07:17:43.367Z,8.43
2019-01-24T07:20:13.505Z,9.57
2019-01-24T07:22:44.224Z,8.33
2019-01-24T07:25:26.596Z,10.77
2019-01-24T07:27:55.671Z,8.07
2019-01-24T07:30:24.696Z,7.57
2019-01-24T07:32:53.676Z,9.03
2019-01-24T07:35:22.718Z,7.53
2019-01-24T07:37:51.694Z,7.87
2019-01-24T07:40:20.717Z,6.23
2019-01-24T07:42:51.468Z,8.83
2019-01-24T07:45:24.904Z,9.03
2019-01-24T07:47:55.613Z,8.67
2019-01-24T07:50:24.785Z,6.93
2019-01-24T07:52:53.801Z,8.43
2019-01-24T07:55:22.767Z,7.90
2019-01-24T07:57:51.849Z,8.20
2019-01-24T08:00:23.000Z,8.17
2019-01-24T08:02:52.118Z,7.83
2019-01-24T08:05:21.378Z,7.60
2019-01-24T08:07:50.482Z,8.97
2019-01-24T08:10:20.561Z,9.53
2019-01-24T08:12:49.664Z,9.03
2019-01-24T08:15:19.636Z,6.07
2019-01-24T08:17:49.299Z,8.10
2019-01-24T08:20:19.938Z,8.40
2019-01-24T08:22:49.497Z,8.93
2019-01-24T08:25:19.145Z,8.73
2019-01-24T08:27:51.919Z,8.70
2019-01-24T08:30:23.756Z,8.07
2019-01-24T08:32:54.416Z,9.73
2019-01-24T08:35:24.622Z,8.23
2019-01-24T08:37:55.441Z,9.40
2019-01-24T08:40:26.646Z,11.93
2019-01-24T08:42:55.653Z,7.20
2019-01-24T08:45:24.701Z,9.97
2019-01-24T08:47:53.885Z,9.00
2019-01-24T08:50:23.857Z,8.70
2019-01-24T08:52:54.826Z,8.33
2019-01-24T08:55:29.165Z,6.77
2019-01-24T08:57:58.179Z,10.97
2019-01-24T09:00:27.350Z,7.80
2019-01-24T09:02:56.462Z,9.97
2019-01-24T09:05:25.438Z,9.13
2019-01-24T09:07:54.474Z,7.93
2019-01-24T09:10:26.446Z,11.13
2019-01-24T09:12:55.777Z,9.43
2019-01-24T09:15:26.252Z,10.40
2019-01-24T09:17:55.267Z,8.33
2019-01-24T09:20:25.698Z,10.10
2019-01-24T09:22:55.441Z,9.00
2019-01-24T09:25:25.208Z,11.80
2019-01-24T09:27:54.212Z,10.83
2019-01-24T09:30:24.706Z,9.83
2019-01-24T09:32:53.712Z,8.07
2019-01-24T09:35:22.862Z,9.97
2019-01-24T09:37:51.869Z,12.67
2019-01-24T09:40:20.951Z,11.70
2019-01-24T09:42:50.395Z,7.97
2019-01-24T09:45:21.340Z,8.47
2019-01-24T09:47:50.560Z,9.23
2019-01-24T09:50:21.203Z,7.93
2019-01-24T09:52:50.223Z,10.77
2019-01-24T09:55:19.348Z,6.57
2019-01-24T09:57:48.298Z,9.60
2019-01-24T10:00:19.734Z,10.67
2019-01-24T10:02:48.753Z,9.70
2019-01-24T10:05:21.039Z,9.93
2019-01-24T10:07:50.221Z,9.70
2019-01-24T10:10:23.553Z,11.43
2019-01-24T10:12:53.434Z,9.37
2019-01-24T10:15:23.303Z,7.87
2019-01-24T10:17:52.528Z,10.30
2019-01-24T10:20:22.977Z,9.73
2019-01-24T10:22:53.328Z,12.20
2019-01-24T10:25:42.719Z,9.57
2019-01-24T10:28:13.420Z,10.10
2019-01-24T10:30:46.879Z,10.93
2019-01-24T10:33:15.894Z,10.73
2019-01-24T10:35:45.418Z,9.30
2019-01-24T10:38:14.322Z,10.23
2019-01-24T10:40:43.430Z,10.83
2019-01-24T10:43:15.042Z,10.87
2019-01-24T10:45:44.874Z,10.03
2019-01-24T10:48:15.577Z,10.17
2019-01-24T10:50:44.746Z,10.93
2019-01-24T10:53:13.602Z,11.43
2019-01-24T10:55:44.521Z,12.57
2019-01-24T10:58:13.305Z,8.97
2019-01-24T11:00:43.354Z,9.97
2019-01-24T11:03:19.560Z,11.03
2019-01-24T11:05:48.856Z,11.20
2019-01-24T11:08:20.323Z,11.13
2019-01-24T11:10:49.642Z,11.23
2019-01-24T11:13:21.702Z,10.17
2019-01-24T11:15:58.004Z,10.97
2019-01-24T11:18:27.079Z,10.77
2019-01-24T11:20:56.085Z,11.47
2019-01-24T11:23:25.032Z,12.67
2019-01-24T11:25:54.074Z,12.00
2019-01-24T11:28:23.002Z,11.00
2019-01-24T11:30:52.042Z,11.00
2019-01-24T11:33:21.311Z,11.10
2019-01-24T11:35:50.494Z,12.43
2019-01-24T11:38:21.069Z,8.47
2019-01-24T11:40:50.202Z,10.53
2019-01-24T11:43:19.374Z,10.57
2019-01-24T11:45:50.596Z,9.57
2019-01-24T11:48:19.922Z,10.40
2019-01-24T11:50:48.833Z,10.33
2019-01-24T11:53:18.068Z,9.63
2019-01-24T11:55:49.456Z,9.57
2019-01-24T11:58:18.579Z,9.97
2019-01-24T12:00:54.387Z,8.90
2019-01-24T12:03:25.103Z,9.77
2019-01-24T12:05:54.020Z,8.50
2019-01-24T12:08:23.014Z,10.77
2019-01-24T12:10:52.265Z,11.47
2019-01-24T12:13:21.264Z,8.70
2019-01-24T12:15:51.317Z,10.10
2019-01-24T12:18:20.355Z,10.43
2019-01-24T12:20:49.572Z,10.47
2019-01-24T12:23:19.310Z,8.63
2019-01-24T12:25:51.878Z,9.83
2019-01-24T12:28:23.696Z,10.87
2019-01-24T12:30:54.100Z,10.80
2019-01-24T12:33:26.690Z,10.33
2019-01-24T12:35:56.823Z,9.47
2019-01-24T12:38:26.550Z,10.63
2019-01-24T12:40:56.905Z,8.80
2019-01-24T12:43:26.167Z,10.47
2019-01-24T12:45:56.846Z,9.60
2019-01-24T12:48:32.058Z,10.27
2019-01-24T12:51:03.951Z,9.10
2019-01-24T12:53:35.007Z,10.47
2019-01-24T12:56:06.480Z,8.43
2019-01-24T12:58:38.295Z,10.97
2019-01-24T13:01:08.688Z,8.83
2019-01-24T13:03:39.048Z,8.67
2019-01-24T13:06:08.612Z,9.03
2019-01-24T13:08:39.685Z,9.97
2019-01-24T13:11:09.925Z,9.47
2019-01-24T13:13:40.259Z,10.43
2019-01-24T13:16:09.825Z,9.70
2019-01-24T13:18:42.004Z,9.73
2019-01-24T13:21:11.692Z,9.17
2019-01-24T13:23:45.766Z,10.83
2019-01-24T13:26:18.572Z,9.33
2019-01-24T13:28:48.548Z,9.73
2019-01-24T13:31:22.943Z,9.63
2019-01-24T13:33:51.455Z,10.20
2019-01-24T13:36:22.607Z,9.70
2019-01-24T13:38:53.538Z,10.33
2019-01-24T13:41:24.880Z,10.67
2019-01-24T13:43:57.227Z,9.33
2019-01-24T13:46:26.289Z,9.90
2019-01-24T13:49:05.548Z,11.93
2019-01-24T13:51:35.696Z,10.53
2019-01-24T13:54:06.109Z,12.80
2019-01-24T13:56:36.571Z,10.80
2019-01-24T13:59:07.015Z,11.80
2019-01-24T14:01:36.882Z,9.97
2019-01-24T14:04:20.343Z,11.53
2019-01-24T14:06:49.524Z,11.07
2019-01-24T14:09:18.670Z,10.83
2019-01-24T14:11:47.747Z,10.73
2019-01-24T14:14:16.716Z,11.57
2019-01-24T14:16:45.881Z,12.13
2019-01-24T14:19:15.215Z,9.70
2019-01-24T14:21:44.177Z,10.33
2019-01-24T14:24:18.254Z,11.23
2019-01-24T14:26:49.301Z,10.97
2019-01-24T14:29:21.521Z,11.50
2019-01-24T14:31:52.355Z,10.87
2019-01-24T14:34:21.594Z,8.97
2019-01-24T14:36:51.973Z,10.67
2019-01-24T14:39:22.236Z,10.40
2019-01-24T14:41:51.951Z,10.93
2019-01-24T14:44:21.482Z,10.90
2019-01-24T14:46:50.456Z,10.90
2019-01-24T14:49:20.385Z,10.77
2019-01-24T14:51:49.570Z,11.60
2019-01-24T14:54:18.611Z,10.40
2019-01-24T14:56:47.588Z,12.00
2019-01-24T14:59:16.497Z,12.87
2019-01-24T15:01:45.382Z,10.60
2019-01-24T15:04:14.343Z,11.00
2019-01-24T15:06:43.350Z,10.37
2019-01-24T15:09:12.558Z,10.13
2019-01-24T15:11:41.564Z,11.70
2019-01-24T15:14:10.445Z,10.93
2019-01-24T15:16:39.460Z,11.13
2019-01-24T15:19:08.330Z,11.07
2019-01-24T15:21:37.368Z,11.70
2019-01-24T15:24:07.089Z,13.03
2019-01-24T15:26:36.441Z,12.70
2019-01-24T15:29:05.719Z,11.13
2019-01-24T15:31:34.996Z,11.57
2019-01-24T15:34:08.279Z,11.83
2019-01-24T15:36:37.986Z,10.47
2019-01-24T15:39:08.630Z,12.73
2019-01-24T15:41:37.844Z,8.83
2019-01-24T15:44:06.928Z,8.80
2019-01-24T15:46:35.945Z,9.07
2019-01-24T15:49:05.339Z,9.17
2019-01-24T15:51:34.432Z,10.63
2019-01-24T15:54:04.028Z,11.17
2019-01-24T15:56:33.314Z,9.03
2019-01-24T15:59:02.594Z,10.07
2019-01-24T16:01:31.736Z,10.37
2019-01-24T16:04:00.762Z,9.90
2019-01-24T16:06:29.695Z,8.70
2019-01-24T16:08:58.673Z,10.40
2019-01-24T16:11:27.986Z,9.57
2019-01-24T16:13:56.982Z,10.33
2019-01-24T16:16:26.242Z,10.73
2019-01-24T16:18:55.277Z,8.53
2019-01-24T16:21:24.225Z,11.23
2019-01-24T16:23:53.119Z,7.33
2019-01-24T16:26:22.150Z,9.37
2019-01-24T16:28:51.142Z,9.50
2019-01-24T16:31:20.947Z,11.20
2019-01-24T16:33:57.642Z,10.97
2019-01-24T16:36:28.524Z,10.17
2019-01-24T16:39:02.256Z,11.60
2019-01-24T16:41:32.614Z,10.73
2019-01-24T16:44:02.634Z,11.00
2019-01-24T16:46:31.704Z,9.73
2019-01-24T16:49:01.966Z,9.93
2019-01-24T16:51:30.811Z,10.30
2019-01-24T16:53:59.775Z,10.17
2019-01-24T16:56:28.888Z,9.70
2019-01-24T16:58:58.175Z,12.20
2019-01-24T17:01:27.261Z,10.43
2019-01-24T17:03:56.234Z,9.43
2019-01-24T17:06:26.673Z,11.83
2019-01-24T17:08:56.308Z,12.77
2019-01-24T17:11:25.257Z,10.13
2019-01-24T17:13:54.186Z,11.00
2019-01-24T17:16:23.241Z,12.93
2019-01-24T17:18:52.277Z,11.17
2019-01-24T17:21:21.274Z,11.43
2019-01-24T17:23:50.590Z,9.77
2019-01-24T17:26:19.574Z,11.60
2019-01-24T17:28:49.962Z,9.67
2019-01-24T17:31:19.046Z,11.77
2019-01-24T17:33:48.270Z,11.43
2019-01-24T17:36:17.341Z,9.90
2019-01-24T17:38:46.358Z,10.57
2019-01-24T17:41:15.445Z,10.67
2019-01-24T17:43:44.357Z,14.23
2019-01-24T17:46:13.446Z,12.40
2019-01-24T17:48:42.757Z,12.37
2019-01-24T17:51:11.744Z,12.23
2019-01-24T17:53:40.807Z,10.93
2019-01-24T17:56:09.926Z,13.27
2019-01-24T17:58:39.267Z,10.17
2019-01-24T18:01:08.759Z,14.37
2019-01-24T18:03:37.846Z,13.07
2019-01-24T18:06:06.881Z,10.60
2019-01-24T18:08:35.889Z,12.63
2019-01-24T18:11:05.595Z,12.80
2019-01-24T18:13:34.510Z,13.43
2019-01-24T18:16:03.651Z,12.57
2019-01-24T18:18:32.750Z,14.57
2019-01-24T18:21:01.860Z,14.10
2019-01-24T18:23:31.022Z,12.90
2019-01-24T18:25:59.983Z,13.63
2019-01-24T18:28:29.115Z,15.07
2019-01-24T18:30:58.123Z,14.27
2019-01-24T18:33:27.283Z,15.23
2019-01-24T18:35:59.736Z,11.83
2019-01-24T18:38:31.296Z,11.83
2019-01-24T18:41:00.619Z,15.27
2019-01-24T18:43:29.705Z,14.33
2019-01-24T18:46:01.031Z,15.03
2019-01-24T18:48:30.125Z,14.57
2019-01-24T18:50:59.143Z,14.63
2019-01-24T18:53:28.859Z,12.97
2019-01-24T18:55:59.900Z,16.20
2019-01-24T18:58:29.307Z,14.67
2019-01-24T19:00:58.590Z,15.50
2019-01-24T19:03:27.993Z,14.30
2019-01-24T19:05:57.992Z,16.17
2019-01-24T19:08:27.497Z,15.23
2019-01-24T19:10:57.850Z,12.67
2019-01-24T19:13:27.147Z,14.67
2019-01-24T19:15:56.913Z,13.77
2019-01-24T19:18:26.064Z,15.10
2019-01-24T19:20:57.826Z,14.43
2019-01-24T19:23:26.852Z,15.63
2019-01-24T19:25:57.192Z,15.33
2019-01-24T19:28:26.585Z,14.70
2019-01-24T19:30:57.210Z,15.57
2019-01-24T19:33:27.361Z,14.37
2019-01-24T19:36:00.353Z,13.67
2019-01-24T19:38:28.666Z,15.80
2019-01-24T19:40:59.187Z,15.07
2019-01-24T19:43:28.286Z,15.47
2019-01-24T19:45:57.598Z,14.63
2019-01-24T19:48:27.053Z,17.60
2019-01-24T19:50:56.097Z,15.97
2019-01-24T19:53:25.300Z,14.10
2019-01-24T19:55:59.064Z,16.43
2019-01-24T19:58:32.938Z,16.40
2019-01-24T20:01:03.898Z,16.67
2019-01-24T20:03:36.310Z,14.43
2019-01-24T20:06:09.090Z,14.50
2019-01-24T20:08:40.156Z,13.23
2019-01-24T20:11:13.676Z,13.27
2019-01-24T20:13:43.263Z,16.27
2019-01-24T20:16:12.992Z,15.37
2019-01-24T20:18:43.798Z,15.83
2019-01-24T20:21:13.585Z,17.60
2019-01-24T20:23:44.582Z,15.60
2019-01-24T20:26:14.058Z,12.87
2019-01-24T20:28:45.244Z,13.70
2019-01-24T20:31:18.954Z,15.03
2019-01-24T20:33:51.649Z,13.23
2019-01-24T20:36:21.369Z,14.77
2019-01-24T20:38:51.789Z,14.77
2019-01-24T20:41:21.602Z,14.40
2019-01-24T20:43:51.189Z,13.43
2019-01-24T20:46:21.723Z,13.93
2019-01-24T20:48:54.422Z,14.83
2019-01-24T20:51:24.676Z,16.23
2019-01-24T20:53:57.584Z,13.67
2019-01-24T20:56:27.241Z,14.17
2019-01-24T20:58:57.005Z,13.73
2019-01-24T21:01:26.250Z,15.77
2019-01-24T21:03:55.661Z,13.70
2019-01-24T21:06:26.694Z,14.00
2019-01-24T21:08:55.914Z,15.47
2019-01-24T21:11:24.835Z,13.43
2019-01-24T21:13:55.818Z,14.80
2019-01-24T21:16:25.610Z,14.73
2019-01-24T21:18:54.538Z,17.30
2019-01-24T21:21:23.551Z,14.70
2019-01-24T21:23:52.531Z,14.83
2019-01-24T21:26:22.040Z,14.03
2019-01-24T21:28:51.514Z,14.90
2019-01-24T21:31:20.919Z,16.87
2019-01-24T21:33:51.870Z,14.40
2019-01-24T21:36:21.062Z,14.70
2019-01-24T21:38:50.632Z,12.83
2019-01-24T21:41:19.617Z,14.17
2019-01-24T21:43:48.671Z,16.93
2019-01-24T21:46:17.666Z,15.77
2019-01-24T21:48:47.043Z,14.17
2019-01-24T21:51:17.371Z,13.80
2019-01-24T21:53:50.708Z,13.10
2019-01-24T21:56:20.247Z,14.77
2019-01-24T21:58:49.534Z,15.33
2019-01-24T22:01:18.490Z,15.50
2019-01-24T22:03:47.490Z,16.43
2019-01-24T22:06:16.517Z,13.30
2019-01-24T22:08:45.466Z,13.93
2019-01-24T22:11:14.418Z,17.60
2019-01-24T22:13:43.337Z,15.57
2019-01-24T22:16:12.262Z,12.13
2019-01-24T22:18:41.240Z,15.60
2019-01-24T22:21:10.269Z,14.10
2019-01-24T22:23:39.209Z,15.43
2019-01-24T22:26:11.808Z,14.50
2019-01-24T22:28:42.272Z,15.20
2019-01-24T22:31:16.082Z,14.13
2019-01-24T22:33:45.427Z,13.73
2019-01-24T22:36:14.745Z,19.13
2019-01-24T22:38:44.628Z,16.33
2019-01-24T22:41:13.747Z,16.53
2019-01-24T22:43:43.213Z,12.77
2019-01-24T22:46:12.323Z,15.57
2019-01-24T22:48:41.298Z,15.07
2019-01-24T22:51:10.246Z,15.13
2019-01-24T22:53:39.201Z,13.20
2019-01-24T22:56:08.185Z,15.67
2019-01-24T22:58:37.152Z,15.07
2019-01-24T23:01:59.761Z,14.83
2019-01-24T23:04:28.650Z,13.77
2019-01-24T23:06:57.760Z,14.30
2019-01-24T23:09:26.766Z,16.10
2019-01-24T23:11:55.918Z,16.10
2019-01-24T23:14:24.946Z,16.70
2019-01-24T23:16:54.082Z,14.53
2019-01-24T23:19:23.012Z,16.43
2019-01-24T23:21:52.281Z,13.13
2019-01-24T23:24:21.293Z,13.77
2019-01-24T23:26:52.403Z,16.27
2019-01-24T23:29:21.493Z,15.37
2019-01-24T23:31:50.651Z,14.07
2019-01-24T23:34:19.550Z,14.40
2019-01-24T23:36:48.941Z,15.37
2019-01-24T23:39:18.265Z,14.63
2019-01-24T23:41:47.242Z,15.90
2019-01-24T23:44:16.289Z,15.50
2019-01-24T23:46:45.413Z,14.67
2019-01-24T23:49:14.442Z,14.30
2019-01-24T23:51:43.572Z,15.20
2019-01-24T23:54:12.662Z,16.03
2019-01-24T23:56:41.683Z,13.57
2019-01-24T23:59:10.867Z,13.53
